sensor_id;sensor_type;location;lat;lon;timestamp;pressure;altitude;pressure_sealevel;temperature;humidity
50292;BME280;36190;54.980;73.388;2024-03-02T00:00:55;101313.34;;;-3.85;81.92
50292;BME280;36190;54.980;73.388;2024-03-02T00:03:23;101319.44;;;-3.84;82.00
50292;BME280;36190;54.980;73.388;2024-03-02T00:05:51;101322.84;;;-3.82;82.14
50292;BME280;36190;54.980;73.388;2024-03-02T00:08:23;101319.31;;;-3.81;82.09
50292;BME280;36190;54.980;73.388;2024-03-02T00:10:53;101334.88;;;-3.78;82.11
50292;BME280;36190;54.980;73.388;2024-03-02T00:13:26;101318.50;;;-3.82;81.84
50292;BME280;36190;54.980;73.388;2024-03-02T00:15:54;101339.44;;;-3.85;81.62
50292;BME280;36190;54.980;73.388;2024-03-02T00:18:26;101337.00;;;-3.90;81.67
50292;BME280;36190;54.980;73.388;2024-03-02T00:20:55;101336.31;;;-3.95;81.86
50292;BME280;36190;54.980;73.388;2024-03-02T00:23:23;101340.91;;;-4.03;81.91
50292;BME280;36190;54.980;73.388;2024-03-02T00:25:53;101329.97;;;-4.15;81.84
50292;BME280;36190;54.980;73.388;2024-03-02T00:28:22;101337.03;;;-4.18;81.85
50292;BME280;36190;54.980;73.388;2024-03-02T00:30:59;101343.31;;;-4.24;81.86
50292;BME280;36190;54.980;73.388;2024-03-02T00:33:30;101337.41;;;-4.29;81.89
50292;BME280;36190;54.980;73.388;2024-03-02T00:35:58;101337.50;;;-4.32;81.82
50292;BME280;36190;54.980;73.388;2024-03-02T00:38:27;101335.81;;;-4.35;81.90
50292;BME280;36190;54.980;73.388;2024-03-02T00:40:55;101337.59;;;-4.35;81.90
50292;BME280;36190;54.980;73.388;2024-03-02T00:43:45;101343.50;;;-4.30;81.91
50292;BME280;36190;54.980;73.388;2024-03-02T00:46:18;101349.53;;;-4.28;81.69
50292;BME280;36190;54.980;73.388;2024-03-02T00:48:51;101347.75;;;-4.28;81.62
50292;BME280;36190;54.980;73.388;2024-03-02T00:51:20;101354.69;;;-4.26;81.43
50292;BME280;36190;54.980;73.388;2024-03-02T00:53:48;101353.78;;;-4.25;81.27
50292;BME280;36190;54.980;73.388;2024-03-02T00:56:16;101359.84;;;-4.25;81.35
50292;BME280;36190;54.980;73.388;2024-03-02T00:58:43;101362.47;;;-4.25;81.16
50292;BME280;36190;54.980;73.388;2024-03-02T01:01:11;101356.50;;;-4.29;81.00
50292;BME280;36190;54.980;73.388;2024-03-02T01:03:40;101364.31;;;-4.29;80.97
50292;BME280;36190;54.980;73.388;2024-03-02T01:06:08;101360.03;;;-4.31;80.99
50292;BME280;36190;54.980;73.388;2024-03-02T01:08:36;101355.88;;;-4.37;80.88
50292;BME280;36190;54.980;73.388;2024-03-02T01:11:04;101363.66;;;-4.35;80.93
50292;BME280;36190;54.980;73.388;2024-03-02T01:13:32;101371.56;;;-4.38;80.87
50292;BME280;36190;54.980;73.388;2024-03-02T01:16:00;101370.84;;;-4.44;80.84
50292;BME280;36190;54.980;73.388;2024-03-02T01:18:30;101375.25;;;-4.46;80.87
50292;BME280;36190;54.980;73.388;2024-03-02T01:20:59;101365.72;;;-4.47;80.76
50292;BME280;36190;54.980;73.388;2024-03-02T01:23:27;101378.56;;;-4.40;80.86
50292;BME280;36190;54.980;73.388;2024-03-02T01:25:55;101386.25;;;-4.36;80.67
50292;BME280;36190;54.980;73.388;2024-03-02T01:28:22;101380.88;;;-4.31;80.59
50292;BME280;36190;54.980;73.388;2024-03-02T01:30:50;101385.13;;;-4.27;80.61
50292;BME280;36190;54.980;73.388;2024-03-02T01:33:19;101385.13;;;-4.27;80.30
50292;BME280;36190;54.980;73.388;2024-03-02T01:35:47;101390.06;;;-4.19;80.25
50292;BME280;36190;54.980;73.388;2024-03-02T01:38:16;101396.78;;;-4.10;80.10
50292;BME280;36190;54.980;73.388;2024-03-02T01:40:43;101398.28;;;-4.03;79.92
50292;BME280;36190;54.980;73.388;2024-03-02T01:43:12;101396.34;;;-3.98;79.82
50292;BME280;36190;54.980;73.388;2024-03-02T01:45:39;101403.03;;;-3.89;79.59
50292;BME280;36190;54.980;73.388;2024-03-02T01:48:07;101408.97;;;-3.84;79.52
50292;BME280;36190;54.980;73.388;2024-03-02T01:50:35;101399.25;;;-3.80;79.49
50292;BME280;36190;54.980;73.388;2024-03-02T01:53:03;101403.53;;;-3.78;79.53
50292;BME280;36190;54.980;73.388;2024-03-02T01:55:32;101409.63;;;-3.77;79.53
50292;BME280;36190;54.980;73.388;2024-03-02T01:58:00;101416.41;;;-3.73;79.61
50292;BME280;36190;54.980;73.388;2024-03-02T02:00:28;101416.34;;;-3.70;79.45
50292;BME280;36190;54.980;73.388;2024-03-02T02:02:56;101419.84;;;-3.71;79.50
50292;BME280;36190;54.980;73.388;2024-03-02T02:05:24;101420.72;;;-3.72;79.39
50292;BME280;36190;54.980;73.388;2024-03-02T02:07:51;101426.03;;;-3.74;79.51
50292;BME280;36190;54.980;73.388;2024-03-02T02:10:19;101439.00;;;-3.72;79.71
50292;BME280;36190;54.980;73.388;2024-03-02T02:12:48;101447.63;;;-3.70;79.71
50292;BME280;36190;54.980;73.388;2024-03-02T02:15:24;101449.22;;;-3.66;79.76
50292;BME280;36190;54.980;73.388;2024-03-02T02:17:52;101447.44;;;-3.64;79.72
50292;BME280;36190;54.980;73.388;2024-03-02T02:20:20;101446.44;;;-3.60;79.66
50292;BME280;36190;54.980;73.388;2024-03-02T02:22:59;101441.81;;;-3.51;79.65
50292;BME280;36190;54.980;73.388;2024-03-02T02:25:27;101449.63;;;-3.51;79.46
50292;BME280;36190;54.980;73.388;2024-03-02T02:27:56;101459.28;;;-3.53;79.27
50292;BME280;36190;54.980;73.388;2024-03-02T02:30:24;101460.13;;;-3.53;79.29
50292;BME280;36190;54.980;73.388;2024-03-02T02:32:53;101455.66;;;-3.49;79.18
50292;BME280;36190;54.980;73.388;2024-03-02T02:35:20;101459.09;;;-3.47;79.05
50292;BME280;36190;54.980;73.388;2024-03-02T02:37:50;101468.50;;;-3.43;79.13
50292;BME280;36190;54.980;73.388;2024-03-02T02:40:21;101465.78;;;-3.40;78.76
50292;BME280;36190;54.980;73.388;2024-03-02T02:42:48;101465.78;;;-3.40;78.64
50292;BME280;36190;54.980;73.388;2024-03-02T02:45:18;101476.22;;;-3.40;78.54
50292;BME280;36190;54.980;73.388;2024-03-02T02:47:45;101471.00;;;-3.40;78.44
50292;BME280;36190;54.980;73.388;2024-03-02T02:50:13;101477.94;;;-3.39;78.35
50292;BME280;36190;54.980;73.388;2024-03-02T02:52:42;101477.13;;;-3.41;78.35
50292;BME280;36190;54.980;73.388;2024-03-02T02:55:11;101486.38;;;-3.30;78.18
50292;BME280;36190;54.980;73.388;2024-03-02T02:57:41;101496.38;;;-3.18;77.93
50292;BME280;36190;54.980;73.388;2024-03-02T03:00:11;101498.81;;;-3.12;77.71
50292;BME280;36190;54.980;73.388;2024-03-02T03:02:40;101499.44;;;-3.05;77.46
50292;BME280;36190;54.980;73.388;2024-03-02T03:05:09;101506.31;;;-3.02;77.35
50292;BME280;36190;54.980;73.388;2024-03-02T03:07:40;101512.84;;;-2.89;77.22
50292;BME280;36190;54.980;73.388;2024-03-02T03:10:10;101511.63;;;-2.80;76.88
50292;BME280;36190;54.980;73.388;2024-03-02T03:12:38;101513.09;;;-2.71;76.57
50292;BME280;36190;54.980;73.388;2024-03-02T03:15:09;101514.34;;;-2.58;76.20
50292;BME280;36190;54.980;73.388;2024-03-02T03:17:37;101517.31;;;-2.43;76.06
50292;BME280;36190;54.980;73.388;2024-03-02T03:20:07;101519.34;;;-2.28;75.62
50292;BME280;36190;54.980;73.388;2024-03-02T03:22:36;101521.09;;;-2.04;75.32
50292;BME280;36190;54.980;73.388;2024-03-02T03:25:05;101502.88;;;-2.06;74.59
50292;BME280;36190;54.980;73.388;2024-03-02T03:27:34;101517.78;;;-2.08;74.13
50292;BME280;36190;54.980;73.388;2024-03-02T03:30:01;101532.16;;;-2.20;74.22
50292;BME280;36190;54.980;73.388;2024-03-02T03:32:31;101528.28;;;-2.33;74.28
50292;BME280;36190;54.980;73.388;2024-03-02T03:34:58;101528.78;;;-2.47;74.51
50292;BME280;36190;54.980;73.388;2024-03-02T03:37:26;101523.78;;;-2.54;74.62
50292;BME280;36190;54.980;73.388;2024-03-02T03:39:58;101525.81;;;-2.62;74.60
50292;BME280;36190;54.980;73.388;2024-03-02T03:42:26;101525.03;;;-2.64;74.74
50292;BME280;36190;54.980;73.388;2024-03-02T03:44:54;101532.69;;;-2.59;74.56
50292;BME280;36190;54.980;73.388;2024-03-02T03:47:22;101534.25;;;-2.54;74.39
50292;BME280;36190;54.980;73.388;2024-03-02T03:49:51;101541.28;;;-2.56;74.06
50292;BME280;36190;54.980;73.388;2024-03-02T03:52:18;101542.06;;;-2.54;73.81
50292;BME280;36190;54.980;73.388;2024-03-02T03:54:47;101549.88;;;-2.52;73.77
50292;BME280;36190;54.980;73.388;2024-03-02T03:57:14;101551.56;;;-2.51;73.66
50292;BME280;36190;54.980;73.388;2024-03-02T03:59:42;101546.19;;;-2.46;73.48
50292;BME280;36190;54.980;73.388;2024-03-02T04:02:10;101555.69;;;-2.44;73.22
50292;BME280;36190;54.980;73.388;2024-03-02T04:04:38;101547.66;;;-2.39;73.16
50292;BME280;36190;54.980;73.388;2024-03-02T04:07:08;101569.16;;;-2.31;73.11
50292;BME280;36190;54.980;73.388;2024-03-02T04:09:35;101561.25;;;-2.29;72.71
50292;BME280;36190;54.980;73.388;2024-03-02T04:12:04;101571.88;;;-2.34;72.53
50292;BME280;36190;54.980;73.388;2024-03-02T04:14:32;101569.16;;;-2.31;72.73
50292;BME280;36190;54.980;73.388;2024-03-02T04:16:59;101581.38;;;-2.31;72.29
50292;BME280;36190;54.980;73.388;2024-03-02T04:19:27;101571.97;;;-2.37;72.50
50292;BME280;36190;54.980;73.388;2024-03-02T04:21:55;101579.81;;;-2.37;72.41
50292;BME280;36190;54.980;73.388;2024-03-02T04:24:24;101580.75;;;-2.38;72.51
50292;BME280;36190;54.980;73.388;2024-03-02T04:26:52;101582.44;;;-2.37;72.47
50292;BME280;36190;54.980;73.388;2024-03-02T04:29:20;101591.25;;;-2.40;72.50
50292;BME280;36190;54.980;73.388;2024-03-02T04:31:48;101596.63;;;-2.44;72.67
50292;BME280;36190;54.980;73.388;2024-03-02T04:34:15;101592.47;;;-2.50;72.87
50292;BME280;36190;54.980;73.388;2024-03-02T04:36:43;101587.09;;;-2.45;73.11
50292;BME280;36190;54.980;73.388;2024-03-02T04:39:11;101593.91;;;-2.41;73.05
50292;BME280;36190;54.980;73.388;2024-03-02T04:41:40;101592.31;;;-2.45;73.04
50292;BME280;36190;54.980;73.388;2024-03-02T04:44:08;101603.47;;;-2.40;73.15
50292;BME280;36190;54.980;73.388;2024-03-02T04:46:35;101604.22;;;-2.37;72.85
50292;BME280;36190;54.980;73.388;2024-03-02T04:49:03;101603.97;;;-2.30;72.91
50292;BME280;36190;54.980;73.388;2024-03-02T04:51:31;101599.41;;;-2.24;72.81
50292;BME280;36190;54.980;73.388;2024-03-02T04:53:59;101601.78;;;-2.17;72.67
50292;BME280;36190;54.980;73.388;2024-03-02T04:56:27;101605.13;;;-2.14;72.48
50292;BME280;36190;54.980;73.388;2024-03-02T04:59:11;101602.25;;;-2.06;72.19
50292;BME280;36190;54.980;73.388;2024-03-02T05:01:39;101616.06;;;-2.02;72.24
50292;BME280;36190;54.980;73.388;2024-03-02T05:04:07;101603.94;;;-2.05;71.92
50292;BME280;36190;54.980;73.388;2024-03-02T05:06:34;101609.94;;;-2.01;71.86
50292;BME280;36190;54.980;73.388;2024-03-02T05:09:02;101614.28;;;-2.02;71.80
50292;BME280;36190;54.980;73.388;2024-03-02T05:11:30;101607.38;;;-2.03;71.97
50292;BME280;36190;54.980;73.388;2024-03-02T05:14:26;101608.63;;;-1.89;71.72
50292;BME280;36190;54.980;73.388;2024-03-02T05:16:54;101624.09;;;-1.83;71.49
50292;BME280;36190;54.980;73.388;2024-03-02T05:19:22;101616.25;;;-1.83;70.92
50292;BME280;36190;54.980;73.388;2024-03-02T05:21:51;101612.38;;;-1.73;71.19
50292;BME280;36190;54.980;73.388;2024-03-02T05:24:19;101618.34;;;-1.69;70.82
50292;BME280;36190;54.980;73.388;2024-03-02T05:26:46;101610.41;;;-1.68;70.53
50292;BME280;36190;54.980;73.388;2024-03-02T05:29:14;101621.78;;;-1.69;70.49
50292;BME280;36190;54.980;73.388;2024-03-02T05:31:44;101620.00;;;-1.67;70.06
50292;BME280;36190;54.980;73.388;2024-03-02T05:34:11;101617.03;;;-1.57;70.20
50292;BME280;36190;54.980;73.388;2024-03-02T05:36:39;101621.47;;;-1.59;69.74
50292;BME280;36190;54.980;73.388;2024-03-02T05:39:07;101626.13;;;-1.68;69.65
50292;BME280;36190;54.980;73.388;2024-03-02T05:41:36;101628.97;;;-1.74;69.75
50292;BME280;36190;54.980;73.388;2024-03-02T05:44:04;101628.72;;;-1.68;69.72
50292;BME280;36190;54.980;73.388;2024-03-02T05:46:32;101627.91;;;-1.68;69.45
50292;BME280;36190;54.980;73.388;2024-03-02T05:49:01;101631.59;;;-1.74;69.22
50292;BME280;36190;54.980;73.388;2024-03-02T05:51:29;101632.59;;;-1.78;69.45
50292;BME280;36190;54.980;73.388;2024-03-02T05:53:57;101638.06;;;-1.84;69.26
50292;BME280;36190;54.980;73.388;2024-03-02T05:56:25;101641.84;;;-1.91;69.25
50292;BME280;36190;54.980;73.388;2024-03-02T05:58:53;101649.63;;;-1.90;69.40
50292;BME280;36190;54.980;73.388;2024-03-02T06:01:33;101640.75;;;-1.86;69.18
50292;BME280;36190;54.980;73.388;2024-03-02T06:04:02;101633.47;;;-1.77;68.85
50292;BME280;36190;54.980;73.388;2024-03-02T06:06:29;101636.72;;;-1.71;68.70
50292;BME280;36190;54.980;73.388;2024-03-02T06:08:58;101645.25;;;-1.66;68.64
50292;BME280;36190;54.980;73.388;2024-03-02T06:11:26;101647.13;;;-1.69;68.37
50292;BME280;36190;54.980;73.388;2024-03-02T06:13:53;101640.28;;;-1.73;68.09
50292;BME280;36190;54.980;73.388;2024-03-02T06:16:21;101652.47;;;-1.72;68.36
50292;BME280;36190;54.980;73.388;2024-03-02T06:18:49;101647.50;;;-1.56;68.27
50292;BME280;36190;54.980;73.388;2024-03-02T06:21:18;101655.69;;;-1.42;67.89
50292;BME280;36190;54.980;73.388;2024-03-02T06:23:46;101651.13;;;-1.36;67.48
50292;BME280;36190;54.980;73.388;2024-03-02T06:26:14;101656.53;;;-1.41;67.31
50292;BME280;36190;54.980;73.388;2024-03-02T06:28:41;101665.31;;;-1.42;67.08
50292;BME280;36190;54.980;73.388;2024-03-02T06:31:09;101668.84;;;-1.43;66.98
50292;BME280;36190;54.980;73.388;2024-03-02T06:33:37;101665.66;;;-1.52;66.80
50292;BME280;36190;54.980;73.388;2024-03-02T06:36:06;101666.06;;;-1.62;66.52
50292;BME280;36190;54.980;73.388;2024-03-02T06:38:37;101670.59;;;-1.68;66.76
50292;BME280;36190;54.980;73.388;2024-03-02T06:41:06;101677.66;;;-1.70;66.41
50292;BME280;36190;54.980;73.388;2024-03-02T06:43:34;101654.41;;;-1.77;66.37
50292;BME280;36190;54.980;73.388;2024-03-02T06:46:01;101675.75;;;-1.64;66.34
50292;BME280;36190;54.980;73.388;2024-03-02T06:48:29;101664.59;;;-1.70;65.70
50292;BME280;36190;54.980;73.388;2024-03-02T06:50:57;101686.56;;;-1.74;65.49
50292;BME280;36190;54.980;73.388;2024-03-02T06:53:24;101681.19;;;-1.71;65.45
50292;BME280;36190;54.980;73.388;2024-03-02T06:55:53;101688.34;;;-1.76;64.85
50292;BME280;36190;54.980;73.388;2024-03-02T06:58:21;101676.19;;;-1.77;64.95
50292;BME280;36190;54.980;73.388;2024-03-02T07:00:49;101676.81;;;-1.70;64.75
50292;BME280;36190;54.980;73.388;2024-03-02T07:03:17;101671.13;;;-1.58;64.51
50292;BME280;36190;54.980;73.388;2024-03-02T07:05:44;101677.66;;;-1.46;64.24
50292;BME280;36190;54.980;73.388;2024-03-02T07:08:13;101669.44;;;-1.36;63.97
50292;BME280;36190;54.980;73.388;2024-03-02T07:10:41;101676.28;;;-1.32;63.61
50292;BME280;36190;54.980;73.388;2024-03-02T07:13:10;101672.06;;;-1.36;63.54
50292;BME280;36190;54.980;73.388;2024-03-02T07:15:39;101676.34;;;-1.34;63.25
50292;BME280;36190;54.980;73.388;2024-03-02T07:18:31;101677.13;;;-1.32;63.04
50292;BME280;36190;54.980;73.388;2024-03-02T07:21:00;101685.91;;;-1.33;62.47
50292;BME280;36190;54.980;73.388;2024-03-02T07:23:27;101688.13;;;-1.46;61.90
50292;BME280;36190;54.980;73.388;2024-03-02T07:25:56;101684.28;;;-1.59;61.84
50292;BME280;36190;54.980;73.388;2024-03-02T07:28:27;101691.78;;;-1.74;61.48
50292;BME280;36190;54.980;73.388;2024-03-02T07:30:58;101693.38;;;-1.70;61.03
50292;BME280;36190;54.980;73.388;2024-03-02T07:33:26;101689.53;;;-1.59;61.20
50292;BME280;36190;54.980;73.388;2024-03-02T07:35:54;101685.63;;;-1.49;60.55
50292;BME280;36190;54.980;73.388;2024-03-02T07:38:22;101691.66;;;-1.47;60.37
50292;BME280;36190;54.980;73.388;2024-03-02T07:40:50;101696.09;;;-1.49;59.95
50292;BME280;36190;54.980;73.388;2024-03-02T07:43:19;101689.41;;;-1.56;59.77
50292;BME280;36190;54.980;73.388;2024-03-02T07:45:49;101699.06;;;-1.58;59.67
50292;BME280;36190;54.980;73.388;2024-03-02T07:48:16;101690.97;;;-1.52;59.53
50292;BME280;36190;54.980;73.388;2024-03-02T07:50:44;101689.59;;;-1.39;59.44
50292;BME280;36190;54.980;73.388;2024-03-02T07:53:12;101692.31;;;-1.18;59.20
50292;BME280;36190;54.980;73.388;2024-03-02T07:55:40;101695.31;;;-1.05;58.60
50292;BME280;36190;54.980;73.388;2024-03-02T07:58:07;101684.09;;;-1.08;58.34
50292;BME280;36190;54.980;73.388;2024-03-02T08:00:38;101690.91;;;-1.04;58.20
50292;BME280;36190;54.980;73.388;2024-03-02T08:03:08;101690.63;;;-0.97;58.22
50292;BME280;36190;54.980;73.388;2024-03-02T08:05:37;101698.94;;;-0.87;57.87
50292;BME280;36190;54.980;73.388;2024-03-02T08:08:05;101694.94;;;-0.73;57.72
50292;BME280;36190;54.980;73.388;2024-03-02T08:10:33;101699.16;;;-0.48;57.79
50292;BME280;36190;54.980;73.388;2024-03-02T08:13:00;101706.78;;;-0.42;57.38
50292;BME280;36190;54.980;73.388;2024-03-02T08:15:28;101713.38;;;-0.54;57.64
50292;BME280;36190;54.980;73.388;2024-03-02T08:17:56;101710.28;;;-0.64;57.94
50292;BME280;36190;54.980;73.388;2024-03-02T08:20:25;101708.16;;;-0.76;58.18
50292;BME280;36190;54.980;73.388;2024-03-02T08:22:53;101706.63;;;-0.82;58.16
50292;BME280;36190;54.980;73.388;2024-03-02T08:25:21;101712.88;;;-0.85;58.01
50292;BME280;36190;54.980;73.388;2024-03-02T08:27:49;101710.44;;;-0.89;57.71
50292;BME280;36190;54.980;73.388;2024-03-02T08:30:17;101697.69;;;-0.76;57.74
50292;BME280;36190;54.980;73.388;2024-03-02T08:32:45;101706.34;;;-0.53;57.28
50292;BME280;36190;54.980;73.388;2024-03-02T08:35:13;101713.19;;;-0.49;56.75
50292;BME280;36190;54.980;73.388;2024-03-02T08:37:42;101709.06;;;-0.55;56.71
50292;BME280;36190;54.980;73.388;2024-03-02T08:40:11;101707.16;;;-0.51;56.83
50292;BME280;36190;54.980;73.388;2024-03-02T08:42:39;101700.03;;;-0.48;56.54
50292;BME280;36190;54.980;73.388;2024-03-02T08:45:07;101706.00;;;-0.44;56.12
50292;BME280;36190;54.980;73.388;2024-03-02T08:47:35;101712.41;;;-0.31;55.68
50292;BME280;36190;54.980;73.388;2024-03-02T08:50:04;101711.75;;;-0.15;55.71
50292;BME280;36190;54.980;73.388;2024-03-02T08:52:32;101710.84;;;-0.14;55.26
50292;BME280;36190;54.980;73.388;2024-03-02T08:55:01;101709.81;;;-0.10;55.19
50292;BME280;36190;54.980;73.388;2024-03-02T08:57:29;101711.25;;;-0.03;54.82
50292;BME280;36190;54.980;73.388;2024-03-02T08:59:57;101715.81;;;0.13;54.66
50292;BME280;36190;54.980;73.388;2024-03-02T09:02:25;101711.00;;;0.23;54.68
50292;BME280;36190;54.980;73.388;2024-03-02T09:04:52;101713.53;;;0.45;54.28
50292;BME280;36190;54.980;73.388;2024-03-02T09:07:20;101714.94;;;0.72;53.99
50292;BME280;36190;54.980;73.388;2024-03-02T09:09:48;101711.25;;;0.95;53.70
50292;BME280;36190;54.980;73.388;2024-03-02T09:12:17;101708.63;;;0.95;53.17
50292;BME280;36190;54.980;73.388;2024-03-02T09:14:46;101718.88;;;0.82;53.28
50292;BME280;36190;54.980;73.388;2024-03-02T09:17:14;101713.31;;;0.69;53.32
50292;BME280;36190;54.980;73.388;2024-03-02T09:19:45;101714.16;;;0.50;53.22
50292;BME280;36190;54.980;73.388;2024-03-02T09:22:13;101712.53;;;0.48;53.57
50292;BME280;36190;54.980;73.388;2024-03-02T09:24:41;101722.19;;;0.47;53.47
50292;BME280;36190;54.980;73.388;2024-03-02T09:27:08;101716.72;;;0.52;53.19
50292;BME280;36190;54.980;73.388;2024-03-02T09:29:38;101716.72;;;0.52;53.11
50292;BME280;36190;54.980;73.388;2024-03-02T09:32:07;101712.47;;;0.49;53.25
50292;BME280;36190;54.980;73.388;2024-03-02T09:34:34;101711.41;;;0.53;53.32
50292;BME280;36190;54.980;73.388;2024-03-02T09:37:02;101708.97;;;0.68;53.03
50292;BME280;36190;54.980;73.388;2024-03-02T09:39:30;101711.75;;;0.84;52.80
50292;BME280;36190;54.980;73.388;2024-03-02T09:41:58;101711.56;;;1.06;52.49
50292;BME280;36190;54.980;73.388;2024-03-02T09:44:26;101713.16;;;1.11;52.13
50292;BME280;36190;54.980;73.388;2024-03-02T09:46:55;101707.25;;;1.05;51.69
50292;BME280;36190;54.980;73.388;2024-03-02T09:49:23;101714.00;;;0.92;52.12
50292;BME280;36190;54.980;73.388;2024-03-02T09:51:51;101709.63;;;0.73;52.29
50292;BME280;36190;54.980;73.388;2024-03-02T09:54:18;101713.88;;;0.57;52.46
50292;BME280;36190;54.980;73.388;2024-03-02T09:56:47;101719.91;;;0.59;52.67
50292;BME280;36190;54.980;73.388;2024-03-02T09:59:14;101717.66;;;0.70;52.50
50292;BME280;36190;54.980;73.388;2024-03-02T10:01:58;101720.47;;;0.85;52.02
50292;BME280;36190;54.980;73.388;2024-03-02T10:04:26;101713.28;;;0.88;51.98
50292;BME280;36190;54.980;73.388;2024-03-02T10:07:10;101715.97;;;1.06;51.90
50292;BME280;36190;54.980;73.388;2024-03-02T10:09:38;101702.31;;;1.17;51.75
50292;BME280;36190;54.980;73.388;2024-03-02T10:12:08;101693.38;;;1.21;51.51
50292;BME280;36190;54.980;73.388;2024-03-02T10:14:36;101705.75;;;1.36;51.17
50292;BME280;36190;54.980;73.388;2024-03-02T10:17:07;101714.91;;;1.47;51.13
50292;BME280;36190;54.980;73.388;2024-03-02T10:19:36;101721.38;;;1.57;50.96
50292;BME280;36190;54.980;73.388;2024-03-02T10:22:05;101719.41;;;1.62;50.83
50292;BME280;36190;54.980;73.388;2024-03-02T10:24:38;101727.69;;;1.72;50.55
50292;BME280;36190;54.980;73.388;2024-03-02T10:27:09;101718.63;;;1.60;50.53
50292;BME280;36190;54.980;73.388;2024-03-02T10:29:38;101721.31;;;1.41;50.98
50292;BME280;36190;54.980;73.388;2024-03-02T10:32:10;101714.50;;;1.37;50.95
50292;BME280;36190;54.980;73.388;2024-03-02T10:34:40;101720.63;;;1.37;51.01
50292;BME280;36190;54.980;73.388;2024-03-02T10:37:08;101726.63;;;1.22;50.96
50292;BME280;36190;54.980;73.388;2024-03-02T10:39:37;101719.19;;;1.13;51.26
50292;BME280;36190;54.980;73.388;2024-03-02T10:42:06;101724.41;;;0.95;51.46
50292;BME280;36190;54.980;73.388;2024-03-02T10:44:34;101716.56;;;0.74;51.70
50292;BME280;36190;54.980;73.388;2024-03-02T10:47:03;101739.22;;;0.58;52.07
50292;BME280;36190;54.980;73.388;2024-03-02T10:49:32;101733.81;;;0.61;52.24
50292;BME280;36190;54.980;73.388;2024-03-02T10:52:01;101727.09;;;0.74;52.08
50292;BME280;36190;54.980;73.388;2024-03-02T10:54:28;101735.97;;;0.91;52.15
50292;BME280;36190;54.980;73.388;2024-03-02T10:57:04;101729.78;;;0.92;51.73
50292;BME280;36190;54.980;73.388;2024-03-02T10:59:33;101733.38;;;1.08;51.73
50292;BME280;36190;54.980;73.388;2024-03-02T11:02:04;101740.22;;;1.13;51.50
50292;BME280;36190;54.980;73.388;2024-03-02T11:04:34;101737.31;;;1.00;51.43
50292;BME280;36190;54.980;73.388;2024-03-02T11:07:06;101735.19;;;0.89;51.43
50292;BME280;36190;54.980;73.388;2024-03-02T11:09:35;101738.09;;;0.82;51.75
50292;BME280;36190;54.980;73.388;2024-03-02T11:12:12;101737.59;;;0.74;51.88
50292;BME280;36190;54.980;73.388;2024-03-02T11:14:41;101746.41;;;0.73;52.11
50292;BME280;36190;54.980;73.388;2024-03-02T11:17:10;101738.31;;;0.78;52.11
50292;BME280;36190;54.980;73.388;2024-03-02T11:19:41;101742.84;;;0.74;51.88
50292;BME280;36190;54.980;73.388;2024-03-02T11:22:09;101741.91;;;0.56;52.30
50292;BME280;36190;54.980;73.388;2024-03-02T11:24:37;101738.88;;;0.46;52.45
50292;BME280;36190;54.980;73.388;2024-03-02T11:27:06;101735.81;;;0.56;52.44
50292;BME280;36190;54.980;73.388;2024-03-02T11:29:46;101732.19;;;0.77;52.11
50292;BME280;36190;54.980;73.388;2024-03-02T11:32:17;101741.88;;;0.96;52.21
50292;BME280;36190;54.980;73.388;2024-03-02T11:34:47;101734.81;;;0.96;51.90
50292;BME280;36190;54.980;73.388;2024-03-02T11:37:16;101735.81;;;0.94;51.86
50292;BME280;36190;54.980;73.388;2024-03-02T11:39:44;101738.09;;;0.82;51.92
50292;BME280;36190;54.980;73.388;2024-03-02T11:42:13;101730.38;;;0.79;51.88
50292;BME280;36190;54.980;73.388;2024-03-02T11:44:43;101730.97;;;1.04;51.69
50292;BME280;36190;54.980;73.388;2024-03-02T11:47:12;101738.69;;;1.26;51.34
50292;BME280;36190;54.980;73.388;2024-03-02T11:49:46;101722.66;;;1.31;51.05
50292;BME280;36190;54.980;73.388;2024-03-02T11:52:16;101742.00;;;1.30;50.95
50292;BME280;36190;54.980;73.388;2024-03-02T11:54:45;101739.03;;;0.81;51.34
50292;BME280;36190;54.980;73.388;2024-03-02T11:57:18;101743.63;;;0.38;52.47
50292;BME280;36190;54.980;73.388;2024-03-02T11:59:46;101740.31;;;-0.07;53.24
50292;BME280;36190;54.980;73.388;2024-03-02T12:02:16;101737.31;;;-0.41;54.05
50292;BME280;36190;54.980;73.388;2024-03-02T12:05:05;101738.56;;;-0.72;54.84
50292;BME280;36190;54.980;73.388;2024-03-02T12:07:34;101738.56;;;-1.17;55.67
50292;BME280;36190;54.980;73.388;2024-03-02T12:10:02;101739.13;;;-1.56;56.29
50292;BME280;36190;54.980;73.388;2024-03-02T12:12:31;101734.88;;;-1.84;57.06
50292;BME280;36190;54.980;73.388;2024-03-02T12:14:59;101740.56;;;-1.97;57.53
50292;BME280;36190;54.980;73.388;2024-03-02T12:17:27;101729.53;;;-2.07;57.75
50292;BME280;36190;54.980;73.388;2024-03-02T12:19:55;101734.25;;;-2.16;58.14
50292;BME280;36190;54.980;73.388;2024-03-02T12:22:24;101731.84;;;-2.23;58.40
50292;BME280;36190;54.980;73.388;2024-03-02T12:24:52;101727.63;;;-2.27;58.65
50292;BME280;36190;54.980;73.388;2024-03-02T12:27:20;101735.66;;;-2.33;58.90
50292;BME280;36190;54.980;73.388;2024-03-02T12:29:48;101726.50;;;-2.45;58.96
50292;BME280;36190;54.980;73.388;2024-03-02T12:32:16;101727.75;;;-2.57;59.26
50292;BME280;36190;54.980;73.388;2024-03-02T12:34:47;101728.78;;;-2.63;59.77
50292;BME280;36190;54.980;73.388;2024-03-02T12:37:14;101732.28;;;-2.64;59.82
50292;BME280;36190;54.980;73.388;2024-03-02T12:39:46;101726.41;;;-2.70;60.08
50292;BME280;36190;54.980;73.388;2024-03-02T12:42:14;101729.19;;;-2.75;60.23
50292;BME280;36190;54.980;73.388;2024-03-02T12:44:42;101735.34;;;-2.78;60.41
50292;BME280;36190;54.980;73.388;2024-03-02T12:47:10;101735.47;;;-2.81;60.57
50292;BME280;36190;54.980;73.388;2024-03-02T12:49:40;101719.88;;;-2.84;60.81
50292;BME280;36190;54.980;73.388;2024-03-02T12:52:08;101725.09;;;-2.84;60.90